createdAt,value
2022-11-10T00:00:22.671Z,100910.45
2022-11-10T00:01:24.548Z,100908.70
2022-11-10T00:02:26.569Z,100913.93
2022-11-10T00:03:28.467Z,100916.58
2022-11-10T00:04:30.650Z,100906.17
2022-11-10T00:05:33.411Z,100905.27
2022-11-10T00:06:35.531Z,100900.00
2022-11-10T00:07:39.830Z,100913.89
2022-11-10T00:08:42.000Z,100910.41
2022-11-10T00:09:44.182Z,100906.02
2022-11-10T00:10:46.377Z,100904.31
2022-11-10T00:11:48.266Z,100906.12
2022-11-10T00:12:50.514Z,100906.20
2022-11-10T00:13:52.390Z,100904.48
2022-11-10T00:14:54.290Z,100901.89
2022-11-10T00:15:58.673Z,100898.39
2022-11-10T00:17:00.833Z,100905.30
2022-11-10T00:18:04.071Z,100907.03
2022-11-10T00:19:07.170Z,100908.67
2022-11-10T00:20:11.116Z,100904.36
2022-11-10T00:21:14.705Z,100904.41
2022-11-10T00:22:16.676Z,100907.06
2022-11-10T00:23:18.708Z,100903.57
2022-11-10T00:24:21.888Z,100900.02
2022-11-10T00:25:24.687Z,100906.95
2022-11-10T00:26:26.923Z,100903.42
2022-11-10T00:27:28.790Z,100902.59
2022-11-10T00:28:31.488Z,100905.25
2022-11-10T00:29:34.252Z,100900.08
2022-11-10T00:30:37.179Z,100904.42
2022-11-10T00:31:41.446Z,100891.41
2022-11-10T00:32:43.382Z,100900.95
2022-11-10T00:33:45.250Z,100895.75
2022-11-10T00:34:47.664Z,100895.72
2022-11-10T00:35:49.537Z,100898.22
2022-11-10T00:36:51.499Z,100896.48
2022-11-10T00:37:53.862Z,100890.36
2022-11-10T00:38:55.749Z,100881.73
2022-11-10T00:39:57.629Z,100890.34
2022-11-10T00:41:01.767Z,100889.50
2022-11-10T00:42:04.932Z,100887.67
2022-11-10T00:43:07.378Z,100895.48
2022-11-10T00:44:09.233Z,100895.58
2022-11-10T00:45:11.113Z,100896.42
2022-11-10T00:46:15.068Z,100891.30
2022-11-10T00:47:16.965Z,100891.37
2022-11-10T00:48:19.021Z,100889.62
2022-11-10T00:49:20.882Z,100891.41
2022-11-10T00:50:23.366Z,100886.30
2022-11-10T00:51:28.470Z,100889.80
2022-11-10T00:52:30.396Z,100882.84
2022-11-10T00:53:32.792Z,100893.27
2022-11-10T00:54:34.696Z,100885.44
2022-11-10T00:55:41.088Z,100886.28
2022-11-10T00:56:43.087Z,100881.95
2022-11-10T00:57:44.975Z,100881.02
2022-11-10T00:58:47.767Z,100875.81
2022-11-10T00:59:49.642Z,100888.00
2022-11-10T01:00:55.714Z,100877.55
2022-11-10T01:01:57.827Z,100872.34
2022-11-10T01:02:59.983Z,100877.57
2022-11-10T01:04:02.699Z,100881.95
2022-11-10T01:05:06.336Z,100883.77
2022-11-10T01:06:11.987Z,100883.77
2022-11-10T01:07:13.946Z,100882.02
2022-11-10T01:08:15.993Z,100877.67
2022-11-10T01:09:18.590Z,100874.20
2022-11-10T01:10:20.778Z,100878.55
2022-11-10T01:11:26.063Z,100876.73
2022-11-10T01:12:29.669Z,100882.80
2022-11-10T01:13:32.711Z,100878.42
2022-11-10T01:14:34.593Z,100872.30
2022-11-10T01:15:41.478Z,100879.14
2022-11-10T01:16:43.485Z,100878.14
2022-11-10T01:17:46.360Z,100869.38
2022-11-10T01:18:54.113Z,100877.16
2022-11-10T01:19:56.014Z,100873.64
2022-11-10T01:20:58.101Z,100876.23
2022-11-10T01:22:00.044Z,100874.48
2022-11-10T01:23:01.901Z,100872.71
2022-11-10T01:24:04.428Z,100863.05
2022-11-10T01:25:08.426Z,100864.77
2022-11-10T01:26:12.157Z,100865.61
2022-11-10T01:27:14.040Z,100865.58
2022-11-10T01:28:15.912Z,100868.19
2022-11-10T01:29:18.756Z,100862.94
2022-11-10T01:30:20.734Z,100860.32
2022-11-10T01:31:22.695Z,100864.70
2022-11-10T01:32:24.826Z,100862.03
2022-11-10T01:33:26.963Z,100864.59
2022-11-10T01:34:28.842Z,100855.88
2022-11-10T01:35:30.698Z,100856.73
2022-11-10T01:36:32.649Z,100861.95
2022-11-10T01:37:34.688Z,100856.75
2022-11-10T01:38:39.088Z,100862.85
2022-11-10T01:39:41.048Z,100858.55
2022-11-10T01:40:43.959Z,100862.03
2022-11-10T01:41:46.078Z,100864.65
2022-11-10T01:42:50.958Z,100856.03
2022-11-10T01:43:52.885Z,100867.42
2022-11-10T01:45:26.737Z,100860.45
2022-11-10T01:46:29.064Z,100863.97
2022-11-10T01:47:31.060Z,100872.77
2022-11-10T01:48:51.759Z,100868.53
2022-11-10T01:49:54.494Z,100873.76
2022-11-10T01:51:02.256Z,100874.63
2022-11-10T01:52:07.618Z,100867.66
2022-11-10T01:53:13.358Z,100866.81
2022-11-10T01:54:21.819Z,100869.43
2022-11-10T01:55:25.142Z,100868.53
2022-11-10T01:56:31.496Z,100867.60
2022-11-10T01:57:34.518Z,100870.17
2022-11-10T01:58:39.897Z,100864.97
2022-11-10T02:00:55.086Z,100876.14
2022-11-10T02:02:00.732Z,100874.52
2022-11-10T02:03:27.557Z,100874.60
2022-11-10T02:04:30.201Z,100874.67
2022-11-10T02:05:33.422Z,100874.69
2022-11-10T02:06:41.173Z,100879.94
2022-11-10T02:07:45.713Z,100875.66
2022-11-10T02:08:49.534Z,100878.27
2022-11-10T02:10:15.615Z,100878.14
2022-11-10T02:11:18.089Z,100879.02
2022-11-10T02:12:19.965Z,100879.80
2022-11-10T02:13:22.282Z,100886.80
2022-11-10T02:14:26.985Z,100880.70
2022-11-10T02:15:29.104Z,100879.80
2022-11-10T02:16:32.339Z,100876.38
2022-11-10T02:17:35.309Z,100877.19
2022-11-10T02:18:38.301Z,100884.09
2022-11-10T02:19:41.296Z,100881.44
2022-11-10T02:20:45.327Z,100879.67
2022-11-10T02:21:47.495Z,100883.20
2022-11-10T02:22:49.577Z,100878.00
2022-11-10T02:23:53.500Z,100884.09
2022-11-10T02:24:56.152Z,100882.38
2022-11-10T02:25:58.360Z,100878.83
2022-11-10T02:27:00.894Z,100883.98
2022-11-10T02:28:02.776Z,100880.45
2022-11-10T02:29:04.654Z,100877.78
2022-11-10T02:30:08.313Z,100877.69
2022-11-10T02:31:11.368Z,100872.42
2022-11-10T02:32:13.350Z,100874.17
2022-11-10T02:33:16.613Z,100878.52
2022-11-10T02:34:19.141Z,100874.98
2022-11-10T02:35:21.045Z,100879.28
2022-11-10T02:36:23.008Z,100872.33
2022-11-10T02:37:25.395Z,100883.64
2022-11-10T02:38:27.269Z,100879.30
2022-11-10T02:39:29.134Z,100884.59
2022-11-10T02:40:31.121Z,100880.22
2022-11-10T02:41:32.988Z,100877.63
2022-11-10T02:42:34.847Z,100879.38
2022-11-10T02:43:37.743Z,100879.40
2022-11-10T02:44:40.019Z,100890.72
2022-11-10T02:45:42.592Z,100879.38
2022-11-10T02:46:45.406Z,100881.16
2022-11-10T02:47:47.431Z,100877.66
2022-11-10T02:48:50.987Z,100882.05
2022-11-10T02:49:53.246Z,100881.16
2022-11-10T02:50:55.208Z,100883.79
2022-11-10T02:51:58.531Z,100889.83
2022-11-10T02:53:00.409Z,100888.05
2022-11-10T02:54:02.288Z,100886.34
2022-11-10T02:55:04.857Z,100884.63
2022-11-10T02:56:08.733Z,100888.11
2022-11-10T02:57:10.683Z,100883.77
2022-11-10T02:58:12.535Z,100884.69
2022-11-10T02:59:14.607Z,100883.88
2022-11-10T03:00:17.806Z,100881.24
2022-11-10T03:01:19.759Z,100881.24
2022-11-10T03:02:21.691Z,100881.24
2022-11-10T03:03:24.067Z,100879.50
2022-11-10T03:04:26.208Z,100879.48
2022-11-10T03:05:29.400Z,100875.09
2022-11-10T03:06:32.346Z,100878.58
2022-11-10T03:07:35.626Z,100874.20
2022-11-10T03:08:37.509Z,100873.31
2022-11-10T03:09:39.394Z,100873.34
2022-11-10T03:10:41.372Z,100871.52
2022-11-10T03:11:43.570Z,100869.74
2022-11-10T03:12:45.449Z,100872.36
2022-11-10T03:14:01.083Z,100868.88
2022-11-10T03:14:51.131Z,100865.42
2022-11-10T03:15:52.996Z,100865.42
2022-11-10T03:16:54.969Z,100872.36
2022-11-10T03:18:01.964Z,100867.08
2022-11-10T03:19:04.471Z,100871.42
2022-11-10T03:20:08.209Z,100857.43
2022-11-10T03:21:10.245Z,100858.30
2022-11-10T03:22:12.610Z,100863.53
2022-11-10T03:23:16.299Z,100858.30
2022-11-10T03:24:18.216Z,100862.65
2022-11-10T03:25:20.137Z,100863.53
2022-11-10T03:26:22.688Z,100869.59
2022-11-10T03:27:24.552Z,100866.91
2022-11-10T03:28:26.455Z,100864.31
2022-11-10T03:29:28.343Z,100865.14
2022-11-10T03:30:30.423Z,100867.77
2022-11-10T03:31:33.378Z,100866.97
2022-11-10T03:32:35.353Z,100860.76
2022-11-10T03:33:38.707Z,100858.09
2022-11-10T03:34:40.733Z,100853.69
2022-11-10T03:35:42.712Z,100852.77
2022-11-10T03:36:44.998Z,100855.41
2022-11-10T03:37:46.893Z,100858.01
2022-11-10T03:38:48.888Z,100849.28
2022-11-10T03:39:50.858Z,100852.72
2022-11-10T03:41:22.898Z,100856.19
2022-11-10T03:41:56.746Z,100850.95
2022-11-10T03:42:58.614Z,100845.68
2022-11-10T03:44:01.490Z,100860.47
2022-11-10T03:45:04.278Z,100848.11
2022-11-10T03:46:06.462Z,100850.71
2022-11-10T03:47:08.443Z,100850.63
2022-11-10T03:48:10.314Z,100845.39
2022-11-10T03:49:12.244Z,100850.63
2022-11-10T03:50:16.703Z,100848.75
2022-11-10T03:51:18.700Z,100847.84
2022-11-10T03:52:23.273Z,100848.70
2022-11-10T03:53:25.512Z,100847.84
2022-11-10T03:54:27.575Z,100846.97
2022-11-10T03:55:30.466Z,100846.09
2022-11-10T03:56:32.445Z,100838.17
2022-11-10T03:57:34.313Z,100845.11
2022-11-10T03:58:36.184Z,100846.83
2022-11-10T03:59:38.152Z,100841.59
2022-11-10T04:00:40.223Z,100844.17
2022-11-10T04:01:42.116Z,100845.05
2022-11-10T04:02:44.061Z,100845.05
2022-11-10T04:03:51.121Z,100845.88
2022-11-10T04:04:50.064Z,100846.73
2022-11-10T04:05:52.028Z,100844.91
2022-11-10T04:06:54.143Z,100847.55
2022-11-10T04:07:59.968Z,100844.95
2022-11-10T04:09:03.720Z,100848.36
2022-11-10T04:10:07.525Z,100851.81
2022-11-10T04:11:09.488Z,100851.76
2022-11-10T04:12:12.368Z,100848.26
2022-11-10T04:13:15.113Z,100850.00
2022-11-10T04:14:18.604Z,100852.59
2022-11-10T04:15:20.556Z,100848.19
2022-11-10T04:16:22.839Z,100845.57
2022-11-10T04:17:24.722Z,100836.04
2022-11-10T04:18:26.604Z,100852.58
2022-11-10T04:19:30.132Z,100848.16
2022-11-10T04:20:32.674Z,100841.19
2022-11-10T04:21:34.677Z,100853.42
2022-11-10T04:22:37.132Z,100847.36
2022-11-10T04:23:39.124Z,100851.69
2022-11-10T04:24:41.178Z,100841.98
2022-11-10T04:25:43.029Z,100842.88
2022-11-10T04:26:45.852Z,100848.06
2022-11-10T04:27:47.820Z,100853.31
2022-11-10T04:28:53.717Z,100855.02
2022-11-10T04:29:56.282Z,100850.66
2022-11-10T04:30:58.369Z,100850.64
2022-11-10T04:32:00.272Z,100856.70
2022-11-10T04:33:04.097Z,100852.27
2022-11-10T04:34:08.816Z,100848.77
2022-11-10T04:35:10.920Z,100848.72
2022-11-10T04:36:17.114Z,100855.64
2022-11-10T04:37:19.031Z,100848.67
2022-11-10T04:38:20.906Z,100853.89
2022-11-10T04:39:22.909Z,100847.73
2022-11-10T04:40:25.112Z,100852.04
2022-11-10T04:41:28.662Z,100858.11
2022-11-10T04:42:30.580Z,100850.25
2022-11-10T04:43:34.873Z,100851.08
2022-11-10T04:44:36.802Z,100852.77
2022-11-10T04:45:38.716Z,100854.42
2022-11-10T04:46:40.676Z,100850.91
2022-11-10T04:47:42.552Z,100850.86
2022-11-10T04:48:45.452Z,100854.31
2022-11-10T04:49:47.422Z,100859.55
2022-11-10T04:50:49.700Z,100849.93
2022-11-10T04:51:51.817Z,100848.11
2022-11-10T04:52:53.871Z,100841.92
2022-11-10T04:53:56.765Z,100854.14
2022-11-10T04:54:58.683Z,100843.63
2022-11-10T04:56:00.559Z,100849.70
2022-11-10T04:57:02.733Z,100849.64
2022-11-10T04:58:04.679Z,100851.33
2022-11-10T04:59:06.579Z,100849.50
2022-11-10T05:00:10.328Z,100853.84
2022-11-10T05:01:14.338Z,100845.94
2022-11-10T05:02:16.245Z,100846.87
2022-11-10T05:03:18.144Z,100850.27
2022-11-10T05:04:20.171Z,100846.73
2022-11-10T05:05:22.123Z,100851.95
2022-11-10T05:06:24.384Z,100847.53
2022-11-10T05:07:26.275Z,100852.77
2022-11-10T05:08:28.126Z,100852.72
2022-11-10T05:09:29.999Z,100855.34
2022-11-10T05:10:33.308Z,100860.53
2022-11-10T05:11:35.290Z,100857.02
2022-11-10T05:12:37.433Z,100858.73
2022-11-10T05:13:39.824Z,100855.22
2022-11-10T05:14:41.711Z,100859.64
2022-11-10T05:15:44.925Z,100863.92
2022-11-10T05:16:46.905Z,100864.80
2022-11-10T05:19:01.247Z,100865.38
2022-11-10T05:20:05.544Z,100863.89
2022-11-10T05:21:07.707Z,100863.86
2022-11-10T05:22:09.565Z,100865.59
2022-11-10T05:23:11.643Z,100866.39
2022-11-10T05:24:15.706Z,100866.42
2022-11-10T05:25:19.613Z,100868.98
2022-11-10T05:26:22.788Z,100864.59
2022-11-10T05:27:25.247Z,100869.81
2022-11-10T05:28:27.132Z,100871.58
2022-11-10T05:29:29.115Z,100874.20
2022-11-10T05:30:33.261Z,100870.63
2022-11-10T05:31:35.176Z,100870.57
2022-11-10T05:32:37.041Z,100869.72
2022-11-10T05:33:39.740Z,100873.20
2022-11-10T05:34:41.643Z,100870.57
2022-11-10T05:35:43.536Z,100880.16
2022-11-10T05:36:45.521Z,100867.06
2022-11-10T05:37:47.401Z,100875.73
2022-11-10T05:38:49.287Z,100873.98
2022-11-10T05:39:51.152Z,100880.06
2022-11-10T05:40:53.645Z,100868.77
2022-11-10T05:41:55.560Z,100870.38
2022-11-10T05:42:57.901Z,100876.42
2022-11-10T05:43:59.867Z,100870.26
2022-11-10T05:45:01.713Z,100871.05
2022-11-10T05:46:03.722Z,100874.56
2022-11-10T05:47:05.618Z,100876.30
2022-11-10T05:48:07.498Z,100880.63
2022-11-10T05:49:09.463Z,100881.48
2022-11-10T05:50:11.626Z,100883.23
2022-11-10T05:51:16.381Z,100890.25
2022-11-10T05:52:18.290Z,100893.00
2022-11-10T05:53:21.058Z,100899.05
2022-11-10T05:54:23.862Z,100893.70
2022-11-10T05:55:29.127Z,100889.20
2022-11-10T05:56:31.237Z,100895.38
2022-11-10T05:57:33.366Z,100894.39
2022-11-10T05:58:36.007Z,100887.34
2022-11-10T05:59:37.877Z,100888.16
2022-11-10T06:00:41.707Z,100895.09
2022-11-10T06:01:43.961Z,100888.06
2022-11-10T06:02:45.832Z,100901.16
2022-11-10T06:03:47.889Z,100900.27
2022-11-10T06:04:51.123Z,100903.69
2022-11-10T06:05:53.240Z,100902.73
2022-11-10T06:06:55.417Z,100902.90
2022-11-10T06:07:58.704Z,100906.41
2022-11-10T06:09:00.576Z,100908.09
2022-11-10T06:10:04.404Z,100910.55
2022-11-10T06:11:06.281Z,100902.70
2022-11-10T06:12:08.191Z,100906.31
2022-11-10T06:13:13.673Z,100911.53
2022-11-10T06:14:16.149Z,100904.48
2022-11-10T10:03:01.816Z,100902.35
2022-11-10T10:04:13.431Z,100923.55
2022-11-10T10:05:22.091Z,100926.99
2022-11-10T10:06:30.567Z,100923.55
2022-11-10T10:07:40.325Z,100918.18
2022-11-10T10:08:55.482Z,100927.84
2022-11-10T10:10:03.925Z,100932.17
2022-11-10T10:11:12.844Z,100926.09
2022-11-10T10:12:27.660Z,100923.80
2022-11-10T10:13:47.291Z,100916.94
2022-11-10T10:15:17.149Z,100916.94
2022-11-10T10:16:32.178Z,100924.76
2022-11-10T10:17:56.428Z,100927.30
2022-11-10T10:19:04.691Z,100934.23
2022-11-10T10:20:13.414Z,100924.55
2022-11-10T10:21:24.955Z,100931.64
2022-11-10T10:22:37.711Z,100936.22
2022-11-10T10:24:57.567Z,100928.00
2022-11-10T10:26:01.779Z,100922.72
2022-11-10T10:27:07.464Z,100926.89
2022-11-10T10:28:15.871Z,100919.66
2022-11-10T10:30:33.639Z,100920.31
2022-11-10T10:31:42.804Z,100924.01
2022-11-10T10:32:44.755Z,100922.09
2022-11-10T10:33:47.916Z,100919.41
2022-11-10T10:34:50.075Z,100919.77
2022-11-10T10:35:56.664Z,100918.09
2022-11-10T10:36:58.670Z,100915.39
2022-11-10T10:38:04.190Z,100921.71
2022-11-10T10:39:17.263Z,100924.35
2022-11-10T10:40:21.795Z,100924.55
2022-11-10T10:41:28.635Z,100926.11
2022-11-10T10:42:35.582Z,100927.94
2022-11-10T10:43:40.469Z,100927.14
2022-11-10T10:45:02.909Z,100923.72
2022-11-10T10:46:08.744Z,100925.66
2022-11-10T10:47:11.617Z,100925.56
2022-11-10T10:48:29.936Z,100930.89
2022-11-10T10:49:31.984Z,100923.02
2022-11-10T10:50:36.268Z,100923.52
2022-11-10T10:51:38.262Z,100932.42
2022-11-10T10:52:41.213Z,100936.22
2022-11-10T10:53:46.188Z,100927.59
2022-11-10T10:55:00.341Z,100925.56
2022-11-10T10:56:09.301Z,100924.91
2022-11-10T10:57:23.926Z,100927.70
2022-11-10T10:58:29.111Z,100926.34
2022-11-10T10:59:32.251Z,100926.34
2022-11-10T11:00:43.141Z,100926.99
2022-11-10T11:01:45.101Z,100927.09
2022-11-10T11:03:05.772Z,100933.12
2022-11-10T11:04:30.399Z,100931.61
2022-11-10T11:05:34.683Z,100929.78
2022-11-10T11:06:38.684Z,100932.22
2022-11-10T11:07:43.143Z,100932.97
2022-11-10T11:08:59.086Z,100926.19
2022-11-10T11:10:00.650Z,100928.73
2022-11-10T11:11:09.914Z,100928.83
2022-11-10T11:12:16.110Z,100930.33
2022-11-10T11:13:26.997Z,100935.71
2022-11-10T11:14:30.863Z,100934.66
2022-11-10T11:15:33.920Z,100931.23
2022-11-10T11:16:48.272Z,100930.44
2022-11-10T11:17:59.853Z,100926.05
2022-11-10T11:19:02.660Z,100925.26
2022-11-10T11:20:12.525Z,100925.95
2022-11-10T11:21:40.197Z,100926.80
2022-11-10T11:23:20.448Z,100927.94
2022-11-10T11:24:35.169Z,100927.94
2022-11-10T11:25:43.613Z,100936.94
2022-11-10T11:27:11.616Z,100923.65
2022-11-10T11:30:03.195Z,100936.46
2022-11-10T11:31:15.436Z,100933.22
2022-11-10T11:32:26.867Z,100941.09
2022-11-10T11:33:32.806Z,100932.61
2022-11-10T11:34:50.920Z,100934.30
2022-11-10T11:37:28.417Z,100928.59
2022-11-10T11:38:33.533Z,100932.52
2022-11-10T11:39:46.145Z,100939.38
2022-11-10T11:41:27.807Z,100930.58
2022-11-10T11:43:10.540Z,100934.86
2022-11-10T11:44:25.180Z,100934.20
2022-11-10T11:45:43.135Z,100935.71
2022-11-10T11:47:04.443Z,100935.91
2022-11-10T11:48:13.150Z,100929.02
2022-11-10T11:49:52.617Z,100935.05
2022-11-10T11:50:57.710Z,100939.48
2022-11-10T11:52:12.496Z,100939.48
2022-11-10T11:53:20.608Z,100943.77
2022-11-10T11:54:29.084Z,100940.98
2022-11-10T11:55:44.646Z,100953.27
2022-11-10T11:56:49.373Z,100953.27
2022-11-10T11:58:15.826Z,100950.83
2022-11-10T11:59:34.708Z,100946.45
2022-11-10T12:00:43.536Z,100942.06
2022-11-10T12:01:58.148Z,100946.27
2022-11-10T12:03:37.901Z,100948.09
2022-11-10T12:05:13.990Z,100945.41
2022-11-10T12:06:40.119Z,100939.05
2022-11-10T12:08:02.103Z,100941.73
2022-11-10T12:09:29.373Z,100946.36
2022-11-10T12:10:42.960Z,100940.78
2022-11-10T12:12:18.509Z,100940.94
2022-11-10T12:13:53.048Z,100940.98
2022-11-10T12:15:01.747Z,100932.17
2022-11-10T12:16:25.257Z,100938.25
2022-11-10T12:17:51.030Z,100926.80
2022-11-10T12:19:02.718Z,100934.00
2022-11-10T12:20:24.022Z,100935.16
2022-11-10T12:21:51.293Z,100937.64
2022-11-10T12:23:20.043Z,100933.50
2022-11-10T12:24:41.852Z,100939.38
2022-11-10T12:25:59.843Z,100938.59
2022-11-10T12:27:26.325Z,100938.59
2022-11-10T12:28:38.217Z,100926.44
2022-11-10T12:30:00.081Z,100926.44
2022-11-10T12:31:06.670Z,100935.25
2022-11-10T12:32:18.109Z,100938.59
2022-11-10T12:33:36.047Z,100938.59
2022-11-10T12:34:47.441Z,100944.75
2022-11-10T12:35:51.526Z,100942.11
2022-11-10T12:36:53.918Z,100934.34
2022-11-10T12:38:14.743Z,100942.11
2022-11-10T12:39:20.443Z,100944.75
2022-11-10T12:40:31.993Z,100947.53
2022-11-10T12:41:38.738Z,100951.03
2022-11-10T12:42:43.552Z,100946.69
2022-11-10T12:44:04.349Z,100944.23
2022-11-10T12:45:18.905Z,100946.97
2022-11-10T12:46:20.953Z,100934.55
2022-11-10T12:47:26.701Z,100934.55
2022-11-10T12:48:32.489Z,100948.53
2022-11-10T12:49:41.916Z,100945.09
2022-11-10T12:51:08.473Z,100936.23
2022-11-10T12:52:14.154Z,100936.23
2022-11-10T12:53:22.827Z,100938.97
2022-11-10T12:54:27.624Z,100945.94
2022-11-10T12:55:48.502Z,100943.36
2022-11-10T12:56:57.318Z,100946.78
2022-11-10T12:58:00.025Z,100947.78
2022-11-10T12:59:21.001Z,100946.83
2022-11-10T13:00:28.038Z,100957.23
2022-11-10T13:01:30.130Z,100949.47
2022-11-10T13:02:44.056Z,100955.78
2022-11-10T13:03:56.654Z,100957.47
2022-11-10T13:05:23.411Z,100952.91
2022-11-10T13:06:29.888Z,100949.47
2022-11-10T13:07:31.797Z,100945.84
2022-11-10T13:08:43.497Z,100939.16
2022-11-10T13:09:45.676Z,100939.16
2022-11-10T13:11:12.113Z,100947.92
2022-11-10T13:12:21.951Z,100937.42
2022-11-10T13:13:24.379Z,100937.42
2022-11-10T13:14:33.080Z,100938.22
2022-11-10T13:15:38.810Z,100940.94
2022-11-10T13:16:44.570Z,100948.63
2022-11-10T13:17:50.346Z,100931.20
2022-11-10T13:18:54.082Z,100931.20
2022-11-10T13:20:05.258Z,100945.14
2022-11-10T13:21:01.851Z,100940.86
2022-11-10T13:22:08.753Z,100945.09
2022-11-10T13:23:30.493Z,100943.45
2022-11-10T13:24:40.939Z,100938.45
2022-11-10T13:25:52.492Z,100945.42
2022-11-10T13:27:06.588Z,100941.79
2022-11-10T13:28:12.121Z,100939.96
2022-11-10T13:29:48.671Z,100941.98
2022-11-10T13:30:52.449Z,100940.86
2022-11-10T13:33:25.020Z,100941.28
2022-11-10T13:35:50.033Z,100946.36
2022-11-10T13:36:52.495Z,100946.36
2022-11-10T13:37:57.816Z,100947.25
2022-11-10T13:39:22.418Z,100955.97
2022-11-10T13:40:28.299Z,100955.87
2022-11-10T13:41:33.923Z,100955.87
2022-11-10T13:42:37.000Z,100951.72
2022-11-10T13:43:48.354Z,100951.72
2022-11-10T13:44:50.276Z,100966.42
2022-11-10T13:45:56.312Z,100960.58
2022-11-10T13:47:12.020Z,100964.81
2022-11-10T13:48:27.751Z,100970.18
2022-11-10T13:49:43.199Z,100973.72
2022-11-10T13:51:07.308Z,100965.99
2022-11-10T13:52:19.075Z,100965.99
2022-11-10T13:54:58.684Z,100975.94
2022-11-10T13:56:20.135Z,100976.45
2022-11-10T13:57:40.595Z,100982.57
2022-11-10T13:58:44.249Z,100978.90
2022-11-10T13:59:50.017Z,100982.57
2022-11-10T14:01:12.887Z,100986.85
2022-11-10T18:13:37.241Z,100955.40
2022-11-10T18:14:39.124Z,100949.58
2022-11-10T18:15:46.020Z,100946.95
2022-11-10T18:16:48.039Z,100950.22
2022-11-10T18:17:49.907Z,100947.33
2022-11-10T18:18:52.170Z,100950.94
2022-11-10T18:19:54.152Z,100953.48
2022-11-10T18:20:57.074Z,100946.38
2022-11-10T18:21:58.973Z,100944.64
2022-11-10T18:23:00.872Z,100956.07
2022-11-10T18:24:03.342Z,100955.09
2022-11-10T18:25:07.541Z,100944.55
2022-11-10T18:26:10.164Z,100942.76
2022-11-10T18:27:12.187Z,100950.57
2022-11-10T18:28:14.776Z,100940.84
2022-11-10T18:29:16.695Z,100940.65
2022-11-10T18:30:18.739Z,100942.36
2022-11-10T18:31:20.600Z,100950.22
2022-11-10T18:32:22.996Z,100953.65
2022-11-10T18:33:25.299Z,100947.62
2022-11-10T18:34:27.479Z,100959.63
2022-11-10T18:35:30.139Z,100958.61
2022-11-10T18:36:32.120Z,100957.70
2022-11-10T18:37:38.742Z,100961.24
2022-11-10T18:38:38.008Z,100964.77
2022-11-10T18:39:39.897Z,100970.75
2022-11-10T18:40:41.872Z,100962.98
2022-11-10T18:41:43.985Z,100969.87
2022-11-10T18:42:46.061Z,100970.66
2022-11-10T18:43:48.004Z,100966.23
2022-11-10T18:44:50.005Z,100966.14
2022-11-10T18:45:52.178Z,100966.95
2022-11-10T18:46:57.819Z,100964.31
2022-11-10T18:48:02.155Z,100963.27
2022-11-10T18:49:04.169Z,100963.27
2022-11-10T18:50:08.016Z,100970.10
2022-11-10T18:51:10.420Z,100974.48
2022-11-10T18:52:12.278Z,100959.20
2022-11-10T18:53:14.270Z,100967.08
2022-11-10T18:54:16.165Z,100967.78
2022-11-10T18:55:19.054Z,100968.30
2022-11-10T18:56:22.164Z,100971.69
2022-11-10T18:57:24.053Z,100972.64
2022-11-10T18:58:26.128Z,100972.64
2022-11-10T18:59:29.196Z,100976.41
2022-11-10T19:00:32.169Z,100973.67
2022-11-10T19:01:35.916Z,100970.94
2022-11-10T19:02:38.035Z,100974.19
2022-11-10T19:03:39.918Z,100973.99
2022-11-10T19:04:42.310Z,100971.55
2022-11-10T19:05:44.321Z,100972.20
2022-11-10T19:06:46.472Z,100973.25
2022-11-10T19:07:50.104Z,100982.91
2022-11-10T19:08:52.240Z,100981.44
2022-11-10T19:09:55.384Z,100985.13
2022-11-10T19:10:57.415Z,100988.61
2022-11-10T19:12:00.435Z,100989.50
2022-11-10T19:13:03.329Z,100991.20
2022-11-10T19:14:05.436Z,100990.35
2022-11-10T19:15:08.930Z,100997.41
2022-11-10T19:16:14.129Z,100993.61
2022-11-10T19:17:16.594Z,100993.55
2022-11-10T19:18:18.559Z,100997.73
2022-11-10T19:19:20.549Z,100993.36
2022-11-10T19:20:22.539Z,100995.09
2022-11-10T19:21:25.571Z,100994.21
2022-11-10T19:22:27.587Z,100981.02
2022-11-10T19:23:29.451Z,100994.12
2022-11-10T19:24:42.391Z,100990.58
2022-11-10T19:25:35.256Z,100990.16
2022-11-10T19:26:37.582Z,100991.72
2022-11-10T19:27:39.442Z,100994.27
2022-11-10T19:28:42.641Z,100990.02
2022-11-10T19:29:44.731Z,100987.47
2022-11-10T19:30:48.565Z,100987.52
2022-11-10T19:31:50.436Z,100992.99
2022-11-10T19:32:52.293Z,100985.92
2022-11-10T19:33:56.257Z,100990.91
2022-11-10T19:35:00.395Z,100987.33
2022-11-10T19:36:08.907Z,100985.45
2022-11-10T19:37:10.813Z,100984.36
2022-11-10T19:38:12.679Z,100982.56
2022-11-10T19:39:14.552Z,100987.79
2022-11-10T19:40:17.184Z,100982.52
2022-11-10T19:41:30.431Z,100982.70
2022-11-10T19:42:33.708Z,100980.88
2022-11-10T19:43:42.486Z,100976.40
2022-11-10T19:44:43.107Z,100976.40
2022-11-10T19:45:44.967Z,100972.80
2022-11-10T19:46:48.379Z,100970.97
2022-11-10T19:47:50.478Z,100979.77
2022-11-10T19:48:53.712Z,100966.58
2022-11-10T19:49:55.863Z,100971.02
2022-11-10T19:51:01.018Z,100974.45
2022-11-10T19:52:03.260Z,100966.67
2022-11-10T19:53:05.618Z,100969.47
2022-11-10T19:54:09.988Z,100970.27
2022-11-10T19:55:12.362Z,100965.14
2022-11-10T19:56:19.191Z,100975.50
2022-11-10T19:57:21.122Z,100978.94
2022-11-10T19:58:23.991Z,100984.12
2022-11-10T19:59:27.376Z,100975.50
2022-11-10T20:00:29.710Z,100976.78
2022-11-10T20:01:31.675Z,100974.09
2022-11-10T20:02:33.786Z,100972.95
2022-11-10T20:03:37.596Z,100978.13
2022-11-10T20:04:39.976Z,100972.86
2022-11-10T20:05:43.488Z,100973.66
2022-11-10T20:06:45.832Z,100974.55
2022-11-10T20:07:50.272Z,100968.28
2022-11-10T20:08:52.173Z,100975.25
2022-11-10T20:09:54.124Z,100973.70
2022-11-10T20:11:05.855Z,100972.16
2022-11-10T20:12:08.423Z,100977.48
2022-11-10T20:13:11.301Z,100980.46
2022-11-10T20:14:13.323Z,100982.91
2022-11-10T20:15:15.459Z,100978.43
2022-11-10T20:16:18.323Z,100971.59
2022-11-10T20:17:20.227Z,100979.27
2022-11-10T20:18:22.201Z,100982.00
2022-11-10T20:19:24.405Z,100974.09
2022-11-10T20:20:26.450Z,100976.08
2022-11-10T20:21:29.280Z,100973.30
2022-11-10T20:22:31.595Z,101000.52
2022-11-10T20:23:33.754Z,100966.00
2022-11-10T20:24:35.621Z,100975.33
2022-11-10T20:25:37.967Z,100976.27
2022-11-10T20:26:40.051Z,100974.42
2022-11-10T20:27:42.052Z,100979.05
2022-11-10T20:28:44.329Z,100975.98
2022-11-10T20:29:46.202Z,100979.95
2022-11-10T20:30:50.346Z,100982.53
2022-11-10T20:31:53.428Z,100980.46
2022-11-10T20:32:55.711Z,100980.56
2022-11-10T20:33:57.624Z,100974.72
2022-11-10T20:34:59.993Z,100972.73
2022-11-10T20:36:04.869Z,100976.21
2022-11-10T20:37:06.807Z,100978.95
2022-11-10T20:38:12.952Z,100979.14
2022-11-10T20:39:17.062Z,100982.25